OITM  Sahand  Airport

Maragheh, Iran

Add Bookmark
Status IATA
Operational ACP
Latitude Longitude
37° 20' 52" N 46° 7' 40" E
37.348000 46.127899
Local (DST + 5) UTC (GMT + 4)
Mar 29, 2015 04:18 Mar 28, 2015 23:48
Sunrise-Sunset Local UTC
Begin Civil Twilight 06:48 02:18
Sunrise 07:14 02:44
Sunset 07:46 15:16
End Civil Twilight 08:12 15:42

Current Weather

METAR Observed VFR
OITM 282100Z 07008KT CAVOK 09/M02 Q1019 Sat, Mar 28, 2015 @ 21:00 UTC
(2 Hours, 48 Minutes ago)
Visual Flight Rules
Wind Visibility Clouds Conditions
070° at 8 knots (15 kph) 10 km or more
  • Clear skies
  • No significant weather
Temperatures Readings Precipitation
Current Temp 9°C (48°F)
Dewpoint -2°C (28°F)
Humidity 46%
Altimeter 30.09"Hg
Sea Level Pressure 1019mb
Field Elevation 4396.33'
None Recorded

Additional weather within a 92.6km radius of OITM

Map ICAO Location
OITT 87.8km N (006°)

24 Hour Weather History

Loading
-

24 Hour Weather Graphs

Loading
-

CheckWX.com is intended as a tool to help pilots better visualize weather data. It is not intended as a substitute for an official weather briefing obtained from a Flight Service Station. CheckWX.com does not meet the FAA requirements for an official pre-flight weather briefing. Therefore, it's important that pilots still call and obtain an official FSS pre-flight weather briefing.